Time;durP1;ratioP1;P1;durP2;ratioP2;P2;SDS_P1;SDS_P2;PMS_P1;PMS_P2;Temp;Humidity;BMP_temperature;BMP_pressure;BME280_temperature;BME280_humidity;BME280_pressure;Samples;Min_cycle;Max_cycle;Signal;HPM_P1;HPM_P2
2022/05/13 00:01:26;;;;;;;;;;;10.10;82.10;;;;;;5062675;28;19916;-62
2022/05/13 00:03:52;;;;;;;;;;;10.10;80.80;;;;;;5067909;28;20019;-63
2022/05/13 00:06:17;;;;;;;;;;;10.20;82.50;;;;;;5062100;28;20031;-62
2022/05/13 00:08:43;;;;;;;;;;;10.30;82.00;;;;;;5066970;28;19916;-65
2022/05/13 00:11:09;;;;;;;;;;;10.30;81.20;;;;;;5068118;28;19939;-63
2022/05/13 00:13:34;;;;;;;;;;;10.20;81.70;;;;;;5066864;28;19970;-63
2022/05/13 00:16:00;;;;;;;;;;;10.20;80.70;;;;;;5065832;28;20003;-65
2022/05/13 00:18:25;;;;;;;;;;;10.20;80.60;;;;;;5067205;28;19969;-62
2022/05/13 00:20:51;;;;;;;;;;;10.20;81.10;;;;;;5065940;28;19923;-65
2022/05/13 00:23:17;;;;;;;;;;;10.30;81.60;;;;;;5064285;28;20446;-63
2022/05/13 00:25:42;;;;;;;;;;;10.40;82.00;;;;;;5067129;28;20494;-65
2022/05/13 00:28:08;;;;;;;;;;;10.40;81.20;;;;;;5063962;28;19916;-62
2022/05/13 00:30:36;;;;;;;;;;;10.40;81.00;;;;;;5065400;28;20380;-63
2022/05/13 00:33:01;;;;;;;;;;;10.50;81.70;;;;;;5071304;28;19924;-63
2022/05/13 00:35:27;;;;;;;;;;;10.50;81.30;;;;;;5064339;28;19920;-64
2022/05/13 00:37:53;;;;;;;;;;;10.50;81.00;;;;;;5066566;28;19920;-63
2022/05/13 00:40:20;;;;;;;;;;;10.60;81.00;;;;;;5068479;28;19923;-62
2022/05/13 00:42:46;;;;;;;;;;;10.60;81.60;;;;;;5063065;28;19929;-64
2022/05/13 00:45:15;;;;;;;;;;;10.60;81.20;;;;;;5070865;28;19947;-62
2022/05/13 00:47:44;;;;;;;;;;;10.70;80.90;;;;;;5071584;28;19916;-63
2022/05/13 00:50:11;;;;;;;;;;;10.80;81.70;;;;;;5069976;28;19917;-63
2022/05/13 00:52:38;;;;;;;;;;;10.80;81.50;;;;;;5069446;28;19924;-64
2022/05/13 00:55:06;;;;;;;;;;;10.90;80.80;;;;;;5068331;28;19920;-63
2022/05/13 00:57:35;;;;;;;;;;;10.90;81.20;;;;;;5066414;28;19963;-63
2022/05/13 01:00:02;;;;;;;;;;;10.90;81.00;;;;;;5065521;28;19924;-63
2022/05/13 01:02:30;;;;;;;;;;;11.00;81.30;;;;;;5070444;28;19958;-65
2022/05/13 01:04:55;;;;;;;;;;;11.00;81.30;;;;;;5069072;28;20276;-62
2022/05/13 01:07:21;;;;;;;;;;;11.00;81.40;;;;;;5072080;28;19916;-63
2022/05/13 01:09:50;;;;;;;;;;;11.00;81.00;;;;;;5066820;28;19943;-63
2022/05/13 01:12:18;;;;;;;;;;;11.00;81.00;;;;;;5071057;28;19971;-63
2022/05/13 01:14:47;;;;;;;;;;;11.00;80.90;;;;;;5068874;28;19969;-63
2022/05/13 01:20:00;;;;;;;;;;;11.10;80.90;;;;;;5064601;28;19920;-63
2022/05/13 01:22:25;;;;;;;;;;;11.10;80.50;;;;;;5066580;28;19924;-63
2022/05/13 01:24:51;;;;;;;;;;;11.10;80.90;;;;;;5067970;28;19939;-62
2022/05/13 01:27:16;;;;;;;;;;;11.10;80.90;;;;;;5066936;28;19920;-63
2022/05/13 01:29:42;;;;;;;;;;;11.20;80.90;;;;;;5068925;28;19924;-62
2022/05/13 01:32:07;;;;;;;;;;;11.10;80.50;;;;;;5067534;28;20011;-64
2022/05/13 01:34:33;;;;;;;;;;;11.10;80.80;;;;;;5070348;28;19916;-63
2022/05/13 01:36:58;;;;;;;;;;;11.10;80.40;;;;;;5072187;28;20010;-62
2022/05/13 01:39:24;;;;;;;;;;;11.00;81.40;;;;;;5068174;28;19973;-65
2022/05/13 01:41:49;;;;;;;;;;;11.00;80.50;;;;;;5066072;28;19923;-64
2022/05/13 01:44:15;;;;;;;;;;;11.00;80.80;;;;;;5065919;28;20007;-64
2022/05/13 01:46:40;;;;;;;;;;;11.10;81.10;;;;;;5068791;28;19920;-63
2022/05/13 01:49:05;;;;;;;;;;;11.00;80.70;;;;;;5069160;28;19920;-63
2022/05/13 01:51:31;;;;;;;;;;;11.10;80.60;;;;;;5065393;28;19916;-65
2022/05/13 01:53:56;;;;;;;;;;;11.10;80.20;;;;;;5070459;28;19995;-63
2022/05/13 01:56:22;;;;;;;;;;;11.10;80.70;;;;;;5067240;28;19916;-64
2022/05/13 01:58:47;;;;;;;;;;;11.00;80.90;;;;;;5066100;28;19925;-64
2022/05/13 02:01:13;;;;;;;;;;;11.00;81.20;;;;;;5068050;28;19927;-62
2022/05/13 02:03:44;;;;;;;;;;;10.90;80.90;;;;;;5070385;28;19916;-63
2022/05/13 02:06:23;;;;;;;;;;;11.00;80.80;;;;;;5070752;28;19916;-63
2022/05/13 02:08:50;;;;;;;;;;;11.00;81.10;;;;;;5068665;28;20011;-62
2022/05/13 02:11:16;;;;;;;;;;;10.90;81.00;;;;;;5069241;28;19950;-63
2022/05/13 02:13:42;;;;;;;;;;;11.00;80.70;;;;;;5068147;28;19920;-65
2022/05/13 02:16:08;;;;;;;;;;;11.10;80.50;;;;;;5069988;28;19939;-63
2022/05/13 02:18:34;;;;;;;;;;;11.00;80.80;;;;;;5067469;28;20370;-63
2022/05/13 02:20:59;;;;;;;;;;;11.00;80.80;;;;;;5070127;28;19928;-63
2022/05/13 02:23:25;;;;;;;;;;;11.10;80.60;;;;;;5068361;28;19924;-65
2022/05/13 02:25:56;;;;;;;;;;;11.10;80.90;;;;;;5065318;28;19993;-63
2022/05/13 02:28:21;;;;;;;;;;;11.10;80.70;;;;;;5065796;28;19927;-64
2022/05/13 02:30:47;;;;;;;;;;;11.10;81.00;;;;;;5066159;28;19916;-63
2022/05/13 02:33:13;;;;;;;;;;;11.00;80.80;;;;;;5069437;28;19924;-65
2022/05/13 02:35:38;;;;;;;;;;;11.10;81.00;;;;;;5071010;28;19916;-63
2022/05/13 02:38:04;;;;;;;;;;;11.10;80.40;;;;;;5069289;28;19917;-64
2022/05/13 02:43:13;;;;;;;;;;;11.00;81.40;;;;;;5066086;28;20284;-63
2022/05/13 02:45:40;;;;;;;;;;;11.00;81.50;;;;;;5064386;28;19921;-62
2022/05/13 02:48:05;;;;;;;;;;;11.00;82.00;;;;;;5071314;28;19920;-63
2022/05/13 02:50:31;;;;;;;;;;;11.00;82.00;;;;;;5066361;28;19917;-64
2022/05/13 02:52:58;;;;;;;;;;;11.00;82.50;;;;;;5068928;28;20368;-64
2022/05/13 02:55:23;;;;;;;;;;;11.00;82.20;;;;;;5068766;28;19924;-64
2022/05/13 02:57:49;;;;;;;;;;;11.10;82.80;;;;;;5068505;28;19927;-62
2022/05/13 03:00:14;;;;;;;;;;;11.00;82.70;;;;;;5067675;28;19924;-64
2022/05/13 03:02:40;;;;;;;;;;;11.00;83.40;;;;;;5062253;28;20391;-64
2022/05/13 03:05:06;;;;;;;;;;;10.90;83.20;;;;;;5070092;28;19984;-64
2022/05/13 03:07:31;;;;;;;;;;;10.90;83.60;;;;;;5065552;28;19916;-63
2022/05/13 03:09:57;;;;;;;;;;;10.90;83.50;;;;;;5069861;28;20493;-63
2022/05/13 03:12:22;;;;;;;;;;;10.90;83.00;;;;;;5067389;28;19916;-63
2022/05/13 03:14:48;;;;;;;;;;;11.00;83.30;;;;;;5076795;28;19919;-63
2022/05/13 03:17:13;;;;;;;;;;;11.00;83.60;;;;;;5065158;28;20046;-63
2022/05/13 03:19:39;;;;;;;;;;;11.00;84.40;;;;;;5063925;28;19925;-63
2022/05/13 03:22:06;;;;;;;;;;;11.00;83.60;;;;;;5065218;28;19925;-62
2022/05/13 03:24:31;;;;;;;;;;;11.00;84.00;;;;;;5070264;28;19962;-63
2022/05/13 03:26:57;;;;;;;;;;;11.00;83.40;;;;;;5064554;28;19923;-64
2022/05/13 03:29:23;;;;;;;;;;;10.90;84.40;;;;;;5050356;28;20367;-63
2022/05/13 03:31:49;;;;;;;;;;;11.00;84.00;;;;;;5067142;28;20054;-63
2022/05/13 03:34:14;;;;;;;;;;;11.00;84.00;;;;;;5066000;28;20011;-63
2022/05/13 03:36:40;;;;;;;;;;;11.00;84.50;;;;;;5066757;28;19923;-64
2022/05/13 03:39:06;;;;;;;;;;;11.00;84.90;;;;;;5069031;28;19925;-64
2022/05/13 03:41:31;;;;;;;;;;;11.00;85.10;;;;;;5067117;28;19927;-63
2022/05/13 03:43:56;;;;;;;;;;;10.90;84.80;;;;;;5060837;28;19917;-63
2022/05/13 03:46:22;;;;;;;;;;;11.00;85.20;;;;;;5064063;28;19998;-64
2022/05/13 03:48:48;;;;;;;;;;;11.00;84.30;;;;;;5068328;28;19924;-64
2022/05/13 03:51:13;;;;;;;;;;;11.00;84.70;;;;;;5064353;28;19916;-65
2022/05/13 03:53:39;;;;;;;;;;;11.00;85.10;;;;;;5069196;28;19923;-63
2022/05/13 03:56:04;;;;;;;;;;;11.00;84.30;;;;;;5065037;28;20418;-63
2022/05/13 03:58:30;;;;;;;;;;;11.00;85.00;;;;;;5069132;28;19925;-63
2022/05/13 04:00:56;;;;;;;;;;;11.00;85.10;;;;;;5065544;28;19924;-62
2022/05/13 04:03:22;;;;;;;;;;;11.00;85.30;;;;;;5064032;28;19916;-63
2022/05/13 04:11:15;;;;;;;;;;;11.00;85.60;;;;;;5066248;28;20972;-64
2022/05/13 04:16:25;;;;;;;;;;;11.10;85.50;;;;;;5064963;28;19925;-64
2022/05/13 04:18:53;;;;;;;;;;;11.10;85.40;;;;;;5068409;28;19921;-63
2022/05/13 04:21:20;;;;;;;;;;;11.10;85.60;;;;;;5065601;28;19923;-65
2022/05/13 04:23:46;;;;;;;;;;;11.10;85.60;;;;;;5068010;28;19920;-63
2022/05/13 04:26:12;;;;;;;;;;;11.10;85.10;;;;;;5067582;28;19916;-63
2022/05/13 04:28:41;;;;;;;;;;;11.10;85.00;;;;;;5064630;28;19987;-63
2022/05/13 04:31:08;;;;;;;;;;;11.20;84.80;;;;;;5060066;28;19921;-65
2022/05/13 04:33:33;;;;;;;;;;;11.20;85.50;;;;;;5067947;28;19916;-63
2022/05/13 04:35:59;;;;;;;;;;;11.10;85.90;;;;;;5064896;28;20295;-65
2022/05/13 04:38:24;;;;;;;;;;;11.20;85.10;;;;;;5065596;28;19927;-63
2022/05/13 04:40:50;;;;;;;;;;;11.10;86.40;;;;;;5066612;28;19960;-63
2022/05/13 04:43:15;;;;;;;;;;;11.10;86.50;;;;;;5068112;28;19916;-64
2022/05/13 04:45:42;;;;;;;;;;;11.20;87.40;;;;;;5062572;28;19921;-63
2022/05/13 04:48:18;;;;;;;;;;;11.10;86.80;;;;;;5066864;28;19920;-64
2022/05/13 04:50:51;;;;;;;;;;;11.20;86.90;;;;;;5067879;28;19920;-63
2022/05/13 04:53:19;;;;;;;;;;;11.20;87.00;;;;;;5061575;28;20300;-63
2022/05/13 04:55:44;;;;;;;;;;;11.20;86.70;;;;;;5062944;28;19955;-63
2022/05/13 04:58:10;;;;;;;;;;;11.20;87.20;;;;;;5060205;28;19920;-63
2022/05/13 05:00:35;;;;;;;;;;;11.20;87.90;;;;;;5062890;28;20024;-63
2022/05/13 05:03:01;;;;;;;;;;;11.30;87.40;;;;;;5064836;28;19916;-63
2022/05/13 05:05:27;;;;;;;;;;;11.30;88.00;;;;;;5062380;28;19935;-63
2022/05/13 05:07:53;;;;;;;;;;;11.40;87.50;;;;;;5066762;28;19981;-65
2022/05/13 05:10:20;;;;;;;;;;;11.40;87.40;;;;;;5062796;28;19971;-64
2022/05/13 05:12:47;;;;;;;;;;;11.40;87.80;;;;;;5066113;28;20478;-63
2022/05/13 05:15:13;;;;;;;;;;;11.40;88.00;;;;;;5068670;28;19916;-63
2022/05/13 05:17:39;;;;;;;;;;;11.40;87.50;;;;;;5062730;28;19974;-64
2022/05/13 05:20:05;;;;;;;;;;;11.40;88.00;;;;;;5065697;28;19967;-63
2022/05/13 05:22:31;;;;;;;;;;;11.50;88.40;;;;;;5067875;28;19922;-63
2022/05/13 05:24:56;;;;;;;;;;;11.50;88.20;;;;;;5054002;28;20792;-62
2022/05/13 05:27:21;;;;;;;;;;;11.50;88.50;;;;;;5068426;28;20238;-63
2022/05/13 05:29:47;;;;;;;;;;;11.60;87.60;;;;;;5068426;28;19969;-63
2022/05/13 05:32:12;;;;;;;;;;;11.60;87.90;;;;;;5070369;28;19924;-64
2022/05/13 05:34:39;;;;;;;;;;;11.70;86.80;;;;;;5054809;28;19921;-64
2022/05/13 05:37:04;;;;;;;;;;;11.80;87.40;;;;;;5063138;28;19916;-63
2022/05/13 05:39:30;;;;;;;;;;;11.90;86.90;;;;;;5071027;28;19931;-63
2022/05/13 05:41:55;;;;;;;;;;;11.90;86.60;;;;;;5066023;28;20332;-64
2022/05/13 05:44:21;;;;;;;;;;;12.00;86.50;;;;;;5066088;28;20361;-64
2022/05/13 05:46:46;;;;;;;;;;;12.10;86.30;;;;;;5056469;28;20394;-63
2022/05/13 05:49:12;;;;;;;;;;;12.10;85.80;;;;;;5068716;28;19916;-65
2022/05/13 05:51:37;;;;;;;;;;;12.20;85.90;;;;;;5060769;28;20295;-65
2022/05/13 05:59:31;;;;;;;;;;;12.30;84.90;;;;;;5060992;28;19928;-64
2022/05/13 06:01:56;;;;;;;;;;;12.30;85.10;;;;;;5063768;28;19921;-63
2022/05/13 06:04:22;;;;;;;;;;;12.60;84.70;;;;;;5063035;28;20257;-63
2022/05/13 06:06:48;;;;;;;;;;;12.90;84.10;;;;;;5060864;28;19936;-63
2022/05/13 06:09:13;;;;;;;;;;;13.00;83.30;;;;;;5069000;28;20291;-63
2022/05/13 06:11:39;;;;;;;;;;;13.30;82.60;;;;;;5058772;28;20697;-63
2022/05/13 06:14:05;;;;;;;;;;;13.30;81.60;;;;;;5064134;28;20777;-63
2022/05/13 06:16:30;;;;;;;;;;;13.50;80.90;;;;;;5071354;28;19973;-64
2022/05/13 06:19:00;;;;;;;;;;;13.50;80.10;;;;;;5063802;28;19920;-63
2022/05/13 06:21:29;;;;;;;;;;;13.60;79.90;;;;;;5060157;28;19967;-63
2022/05/13 06:23:54;;;;;;;;;;;13.70;79.30;;;;;;5068463;28;20406;-63
2022/05/13 06:26:21;;;;;;;;;;;13.80;79.30;;;;;;5068239;28;19924;-64
2022/05/13 06:28:46;;;;;;;;;;;13.80;79.40;;;;;;5054518;28;19931;-64
2022/05/13 06:31:12;;;;;;;;;;;14.00;78.70;;;;;;5068642;28;20365;-64
2022/05/13 06:33:38;;;;;;;;;;;14.10;77.90;;;;;;5070739;28;19916;-65
2022/05/13 06:36:04;;;;;;;;;;;14.10;76.60;;;;;;5062291;28;19917;-63
2022/05/13 06:38:29;;;;;;;;;;;14.20;77.00;;;;;;5042778;28;20015;-63
2022/05/13 06:40:55;;;;;;;;;;;14.20;76.70;;;;;;5062459;28;19943;-64
2022/05/13 06:43:21;;;;;;;;;;;14.30;75.90;;;;;;5057340;28;19928;-64
2022/05/13 06:45:46;;;;;;;;;;;14.30;75.10;;;;;;5066820;28;19924;-64
2022/05/13 06:48:12;;;;;;;;;;;14.40;74.70;;;;;;5068808;28;19962;-63
2022/05/13 06:50:38;;;;;;;;;;;14.60;74.30;;;;;;5065590;28;20292;-65
2022/05/13 06:53:04;;;;;;;;;;;14.60;73.30;;;;;;5066510;28;19928;-64
2022/05/13 06:55:30;;;;;;;;;;;14.80;71.90;;;;;;5052821;28;19925;-64
2022/05/13 06:57:56;;;;;;;;;;;14.90;71.60;;;;;;5067888;28;19921;-65
2022/05/13 07:00:21;;;;;;;;;;;15.10;71.00;;;;;;5054830;28;20273;-65
2022/05/13 07:02:46;;;;;;;;;;;15.10;70.80;;;;;;5051028;28;19916;-63
2022/05/13 07:05:13;;;;;;;;;;;15.30;70.80;;;;;;5065986;28;19943;-64
2022/05/13 07:07:39;;;;;;;;;;;15.20;70.80;;;;;;5068891;28;19959;-64
2022/05/13 07:10:05;;;;;;;;;;;15.00;71.40;;;;;;5059307;28;19982;-64
2022/05/13 07:12:30;;;;;;;;;;;14.90;71.30;;;;;;5068502;28;19920;-65
2022/05/13 07:14:56;;;;;;;;;;;14.80;71.50;;;;;;5064541;28;19916;-63
2022/05/13 07:17:22;;;;;;;;;;;14.60;71.90;;;;;;5067701;28;20025;-63
2022/05/13 07:19:47;;;;;;;;;;;14.60;72.10;;;;;;5070227;28;19920;-63
2022/05/13 07:22:13;;;;;;;;;;;14.60;71.90;;;;;;5070578;28;20379;-64
2022/05/13 07:24:38;;;;;;;;;;;14.60;71.60;;;;;;5068268;28;19920;-63
2022/05/13 07:27:04;;;;;;;;;;;14.60;70.20;;;;;;5070067;28;20391;-64
2022/05/13 07:29:30;;;;;;;;;;;14.60;69.20;;;;;;5067734;28;19931;-63
2022/05/13 07:31:55;;;;;;;;;;;15.00;68.50;;;;;;5069023;28;19920;-63
2022/05/13 07:34:22;;;;;;;;;;;15.20;67.70;;;;;;5065494;28;19916;-63
2022/05/13 07:36:48;;;;;;;;;;;15.20;67.40;;;;;;5073428;28;19924;-63
2022/05/13 07:41:58;;;;;;;;;;;15.50;65.90;;;;;;5064684;28;19924;-64
2022/05/13 07:44:24;;;;;;;;;;;15.80;65.90;;;;;;5057261;28;19917;-63
2022/05/13 07:46:51;;;;;;;;;;;16.00;64.30;;;;;;5067198;28;19916;-63
2022/05/13 07:49:17;;;;;;;;;;;15.90;64.60;;;;;;5068806;28;19947;-64
2022/05/13 07:51:42;;;;;;;;;;;16.30;64.20;;;;;;5071329;28;19966;-65
2022/05/13 07:54:08;;;;;;;;;;;16.60;63.00;;;;;;5062911;28;20359;-64
2022/05/13 07:56:33;;;;;;;;;;;16.90;62.60;;;;;;5065454;28;19924;-65
2022/05/13 07:59:02;;;;;;;;;;;17.00;60.20;;;;;;5069252;28;19920;-65
2022/05/13 08:01:28;;;;;;;;;;;17.50;60.50;;;;;;5070173;28;19966;-63
2022/05/13 08:03:56;;;;;;;;;;;17.60;58.90;;;;;;5063495;28;20571;-64
2022/05/13 08:06:22;;;;;;;;;;;17.80;58.70;;;;;;5066275;28;20364;-64
2022/05/13 08:08:53;;;;;;;;;;;17.70;59.00;;;;;;5066537;28;19943;-64
2022/05/13 08:11:19;;;;;;;;;;;17.60;59.60;;;;;;5068366;28;19935;-64
2022/05/13 08:13:45;;;;;;;;;;;17.10;58.40;;;;;;5070197;28;20016;-65
2022/05/13 08:16:12;;;;;;;;;;;17.20;58.70;;;;;;5067386;28;20011;-63
2022/05/13 08:18:39;;;;;;;;;;;17.20;59.00;;;;;;5071481;28;19927;-64
2022/05/13 08:21:05;;;;;;;;;;;16.90;58.30;;;;;;5070015;28;19971;-66
2022/05/13 08:23:30;;;;;;;;;;;16.90;58.40;;;;;;5071410;28;20574;-64
2022/05/13 08:25:56;;;;;;;;;;;16.80;59.20;;;;;;5067587;28;19995;-65
2022/05/13 08:28:22;;;;;;;;;;;16.90;58.30;;;;;;5066530;28;19991;-64
2022/05/13 08:30:48;;;;;;;;;;;16.70;59.20;;;;;;5066823;28;19962;-64
2022/05/13 08:33:14;;;;;;;;;;;16.40;59.40;;;;;;5064456;28;19920;-63
2022/05/13 08:35:46;;;;;;;;;;;16.40;60.90;;;;;;5065576;28;20336;-63
2022/05/13 08:38:12;;;;;;;;;;;16.20;60.50;;;;;;5064608;28;19986;-64
2022/05/13 08:40:50;;;;;;;;;;;16.40;60.70;;;;;;5068433;28;19920;-63
2022/05/13 08:43:18;;;;;;;;;;;16.40;60.80;;;;;;5068575;28;19920;-65
2022/05/13 08:45:50;;;;;;;;;;;16.50;60.00;;;;;;5044053;28;20288;-64
2022/05/13 08:48:17;;;;;;;;;;;16.80;58.60;;;;;;5066190;28;19972;-64
2022/05/13 08:51:01;;;;;;;;;;;17.10;57.50;;;;;;5068766;28;19921;-64
2022/05/13 08:53:30;;;;;;;;;;;17.20;56.20;;;;;;5038217;28;19965;-65
2022/05/13 08:56:01;;;;;;;;;;;17.10;56.70;;;;;;5061950;28;20398;-65
2022/05/13 08:58:30;;;;;;;;;;;16.90;58.10;;;;;;5066995;28;19924;-65
2022/05/13 09:00:58;;;;;;;;;;;16.80;58.20;;;;;;5070796;28;19924;-63
2022/05/13 09:03:30;;;;;;;;;;;16.90;59.20;;;;;;5063250;28;19948;-65
2022/05/13 09:06:00;;;;;;;;;;;17.50;59.00;;;;;;5071120;28;20536;-65
2022/05/13 09:08:26;;;;;;;;;;;17.50;57.40;;;;;;5074861;28;19995;-64
2022/05/13 09:11:02;;;;;;;;;;;17.30;57.10;;;;;;5070903;28;20314;-64
2022/05/13 09:13:46;;;;;;;;;;;18.10;56.10;;;;;;5068351;28;19920;-65
2022/05/13 09:16:13;;;;;;;;;;;19.30;53.50;;;;;;5074461;28;20001;-64
2022/05/13 09:18:45;;;;;;;;;;;19.40;51.00;;;;;;5071125;28;19927;-63
2022/05/13 09:21:16;;;;;;;;;;;19.70;52.30;;;;;;5071987;28;20383;-64
2022/05/13 09:23:41;;;;;;;;;;;20.50;49.00;;;;;;5072253;28;20478;-64
2022/05/13 09:26:09;;;;;;;;;;;21.20;48.00;;;;;;5067741;28;19995;-64
2022/05/13 09:28:36;;;;;;;;;;;20.30;46.40;;;;;;5074348;28;20353;-65
2022/05/13 09:31:17;;;;;;;;;;;19.90;47.60;;;;;;5069099;28;19924;-65
2022/05/13 09:33:47;;;;;;;;;;;19.30;49.40;;;;;;5070961;28;19923;-64
2022/05/13 09:36:21;;;;;;;;;;;19.30;50.40;;;;;;5061029;28;19923;-64
2022/05/13 09:38:57;;;;;;;;;;;18.90;50.30;;;;;;5071767;28;20002;-63
2022/05/13 09:41:24;;;;;;;;;;;18.30;51.60;;;;;;5070907;28;21752;-64
2022/05/13 09:43:52;;;;;;;;;;;17.80;52.60;;;;;;5071791;28;19920;-64
2022/05/13 09:46:22;;;;;;;;;;;17.50;53.50;;;;;;5063810;28;20399;-64
2022/05/13 09:48:54;;;;;;;;;;;17.50;54.00;;;;;;5052639;28;19916;-64
2022/05/13 09:51:23;;;;;;;;;;;17.40;54.90;;;;;;5068947;28;20003;-64
2022/05/13 09:53:59;;;;;;;;;;;17.40;55.40;;;;;;5074232;28;19917;-65
2022/05/13 09:56:33;;;;;;;;;;;17.30;54.90;;;;;;5061732;28;20410;-64
2022/05/13 09:59:03;;;;;;;;;;;17.60;54.10;;;;;;5067625;28;19970;-65
2022/05/13 10:01:28;;;;;;;;;;;18.40;53.70;;;;;;5066328;28;19983;-64
2022/05/13 10:04:16;;;;;;;;;;;19.10;52.50;;;;;;5065999;28;19928;-65
2022/05/13 10:06:42;;;;;;;;;;;19.50;50.20;;;;;;5063176;28;19931;-64
2022/05/13 10:15:07;;;;;;;;;;;18.40;52.00;;;;;;5066063;28;19935;-65
2022/05/13 10:17:34;;;;;;;;;;;18.00;52.90;;;;;;5067180;28;19996;-64
2022/05/13 10:20:06;;;;;;;;;;;17.60;53.70;;;;;;5062230;28;19927;-64
2022/05/13 10:22:35;;;;;;;;;;;17.80;53.30;;;;;;5064625;28;20261;-66
2022/05/13 10:25:08;;;;;;;;;;;17.90;53.50;;;;;;5058306;28;20015;-65
2022/05/13 10:27:36;;;;;;;;;;;17.60;53.90;;;;;;5056261;28;19931;-64
2022/05/13 10:30:28;;;;;;;;;;;17.70;54.10;;;;;;5070292;28;19969;-64
2022/05/13 10:32:58;;;;;;;;;;;17.80;53.70;;;;;;5036616;28;19917;-63
2022/05/13 10:35:26;;;;;;;;;;;18.00;53.30;;;;;;5055474;28;19923;-64
2022/05/13 10:37:58;;;;;;;;;;;18.60;52.70;;;;;;5062513;28;19928;-64
2022/05/13 10:40:25;;;;;;;;;;;18.90;52.00;;;;;;5068083;28;19920;-64
2022/05/13 10:43:10;;;;;;;;;;;18.90;52.00;;;;;;5067445;28;20777;-64
2022/05/13 10:45:37;;;;;;;;;;;19.00;52.50;;;;;;5055959;28;20308;-65
2022/05/13 10:48:02;;;;;;;;;;;18.50;51.90;;;;;;5051921;28;19920;-64
2022/05/13 10:50:52;;;;;;;;;;;18.40;52.50;;;;;;5072002;28;20367;-65
2022/05/13 10:53:33;;;;;;;;;;;18.50;53.30;;;;;;5066222;28;19951;-64
2022/05/13 10:56:04;;;;;;;;;;;18.40;52.50;;;;;;5067869;28;19916;-63
2022/05/13 10:58:30;;;;;;;;;;;18.50;53.50;;;;;;5067829;28;19962;-63
2022/05/13 11:01:01;;;;;;;;;;;18.50;53.80;;;;;;5069181;28;20819;-66
2022/05/13 11:03:35;;;;;;;;;;;18.60;53.80;;;;;;5072507;28;20284;-64
2022/05/13 11:06:05;;;;;;;;;;;18.70;53.20;;;;;;5064939;28;20480;-65
2022/05/13 11:08:30;;;;;;;;;;;18.50;52.50;;;;;;5072710;28;20367;-63
2022/05/13 11:11:14;;;;;;;;;;;18.60;52.70;;;;;;5065283;28;19970;-66
2022/05/13 11:13:58;;;;;;;;;;;18.20;52.70;;;;;;5069039;28;20355;-64
2022/05/13 11:16:39;;;;;;;;;;;18.40;53.40;;;;;;5071818;28;19923;-64
2022/05/13 11:19:23;;;;;;;;;;;18.40;54.20;;;;;;5071794;28;20196;-64
2022/05/13 11:22:02;;;;;;;;;;;18.40;53.30;;;;;;5062017;28;19916;-64
2022/05/13 11:27:17;;;;;;;;;;;18.50;52.90;;;;;;5067917;28;19924;-65
2022/05/13 11:29:55;;;;;;;;;;;18.40;52.00;;;;;;5071724;28;19920;-66
2022/05/13 11:32:37;;;;;;;;;;;18.20;51.10;;;;;;5068098;28;19920;-64
2022/05/13 11:35:08;;;;;;;;;;;18.40;51.20;;;;;;5064625;28;19920;-64
2022/05/13 11:37:37;;;;;;;;;;;18.10;50.50;;;;;;5072932;28;19927;-64
2022/05/13 11:40:14;;;;;;;;;;;17.80;50.50;;;;;;5066075;28;19979;-64
2022/05/13 11:43:18;;;;;;;;;;;17.70;51.70;;;;;;5062470;28;20409;-65
2022/05/13 11:45:30;;;;;;;;;;;17.50;52.20;;;;;;5066093;28;19917;-65
2022/05/13 11:48:19;;;;;;;;;;;17.60;52.20;;;;;;5067505;28;19947;-64
2022/05/13 11:50:44;;;;;;;;;;;17.50;53.00;;;;;;5069450;28;19920;-65
2022/05/13 11:53:10;;;;;;;;;;;17.50;52.80;;;;;;5071843;28;19916;-63
2022/05/13 11:55:35;;;;;;;;;;;17.40;52.90;;;;;;5070270;28;19924;-63
2022/05/13 11:58:01;;;;;;;;;;;17.50;53.10;;;;;;5070260;28;19927;-64
2022/05/13 12:00:38;;;;;;;;;;;17.50;53.50;;;;;;5065960;28;19928;-64
2022/05/13 12:03:09;;;;;;;;;;;17.70;53.30;;;;;;5068654;28;19963;-64
2022/05/13 12:05:43;;;;;;;;;;;18.00;52.50;;;;;;5058046;28;19998;-64
2022/05/13 12:08:21;;;;;;;;;;;18.40;52.00;;;;;;5059811;28;19920;-63
2022/05/13 12:10:50;;;;;;;;;;;18.90;51.00;;;;;;5069332;28;19966;-64
2022/05/13 12:13:27;;;;;;;;;;;19.00;50.50;;;;;;5069984;28;19923;-64
2022/05/13 12:16:02;;;;;;;;;;;19.00;49.00;;;;;;5070548;28;19917;-66
2022/05/13 12:18:27;;;;;;;;;;;18.60;48.10;;;;;;5071029;28;20379;-64
2022/05/13 12:21:11;;;;;;;;;;;19.10;49.10;;;;;;5069459;28;19924;-64
2022/05/13 12:23:52;;;;;;;;;;;19.20;49.20;;;;;;5040284;28;19969;-65
2022/05/13 12:26:22;;;;;;;;;;;19.60;49.80;;;;;;5054974;28;19966;-64
2022/05/13 12:28:56;;;;;;;;;;;19.40;50.00;;;;;;5064860;28;19916;-65
2022/05/13 12:31:21;;;;;;;;;;;19.50;50.90;;;;;;5070995;28;20352;-65
2022/05/13 12:39:42;;;;;;;;;;;18.80;50.20;;;;;;5068387;28;19928;-65
2022/05/13 12:42:09;;;;;;;;;;;20.60;48.50;;;;;;5052232;28;20276;-65
2022/05/13 12:44:40;;;;;;;;;;;20.90;47.10;;;;;;5066352;28;20429;-64
2022/05/13 12:47:15;;;;;;;;;;;22.30;46.00;;;;;;5068855;28;19924;-65
2022/05/13 12:49:49;;;;;;;;;;;21.90;45.00;;;;;;5050941;28;20381;-65
2022/05/13 12:52:23;;;;;;;;;;;22.90;42.40;;;;;;5050077;28;20300;-63
2022/05/13 12:54:51;;;;;;;;;;;23.80;39.10;;;;;;5049146;28;19920;-65
2022/05/13 12:57:24;;;;;;;;;;;23.00;40.40;;;;;;5055254;28;19920;-65
2022/05/13 12:59:52;;;;;;;;;;;23.00;39.30;;;;;;5067305;28;19921;-64
2022/05/13 13:02:20;;;;;;;;;;;24.30;39.50;;;;;;5069254;28;19916;-65
2022/05/13 13:05:05;;;;;;;;;;;25.50;38.20;;;;;;5069868;28;20390;-64
2022/05/13 13:07:33;;;;;;;;;;;25.70;35.60;;;;;;5068353;28;19916;-66
2022/05/13 13:09:59;;;;;;;;;;;25.50;37.30;;;;;;5063478;28;19920;-65
2022/05/13 13:12:31;;;;;;;;;;;24.70;35.80;;;;;;5068859;28;19962;-65
2022/05/13 13:14:59;;;;;;;;;;;23.80;37.20;;;;;;5062403;28;19982;-65
2022/05/13 13:17:28;;;;;;;;;;;23.00;38.80;;;;;;5069710;28;19920;-62
2022/05/13 13:19:58;;;;;;;;;;;21.80;39.80;;;;;;5066788;28;20349;-64
2022/05/13 13:22:25;;;;;;;;;;;20.90;42.20;;;;;;5065419;28;20007;-65
2022/05/13 13:24:51;;;;;;;;;;;20.50;44.10;;;;;;5069611;28;19916;-64
2022/05/13 13:27:18;;;;;;;;;;;20.10;44.20;;;;;;5070179;28;19928;-65
2022/05/13 13:29:45;;;;;;;;;;;19.90;44.60;;;;;;5065863;28;19916;-64
2022/05/13 13:32:15;;;;;;;;;;;19.50;45.10;;;;;;5070977;28;20011;-64
2022/05/13 13:34:48;;;;;;;;;;;19.20;47.10;;;;;;5068896;28;19924;-65
2022/05/13 13:37:14;;;;;;;;;;;21.80;44.70;;;;;;5065454;28;19920;-64
2022/05/13 13:39:39;;;;;;;;;;;22.30;43.30;;;;;;5065069;28;19932;-65
2022/05/13 13:42:07;;;;;;;;;;;21.70;41.40;;;;;;5066959;28;20284;-64
2022/05/13 13:44:33;;;;;;;;;;;21.20;41.90;;;;;;5070326;28;20372;-64
2022/05/13 13:46:59;;;;;;;;;;;20.60;43.40;;;;;;5069502;28;19923;-64
2022/05/13 13:49:26;;;;;;;;;;;20.80;44.50;;;;;;5070155;28;20372;-63
2022/05/13 13:51:53;;;;;;;;;;;22.60;42.70;;;;;;5068859;28;19916;-63
2022/05/13 13:54:22;;;;;;;;;;;22.40;41.10;;;;;;5069722;28;19916;-65
2022/05/13 13:57:05;;;;;;;;;;;24.20;41.00;;;;;;5069344;28;19920;-64
2022/05/13 13:59:33;;;;;;;;;;;24.60;38.50;;;;;;5067720;28;20443;-64
2022/05/13 14:02:00;;;;;;;;;;;24.20;38.40;;;;;;5069658;28;19959;-64
2022/05/13 14:04:27;;;;;;;;;;;24.60;38.10;;;;;;5069058;28;20031;-63
2022/05/13 14:06:53;;;;;;;;;;;23.50;37.60;;;;;;5072304;28;19962;-65
2022/05/13 14:09:33;;;;;;;;;;;23.70;38.90;;;;;;5050311;28;19916;-63
2022/05/13 14:11:59;;;;;;;;;;;23.80;38.50;;;;;;5070596;28;19920;-64
2022/05/13 14:14:25;;;;;;;;;;;22.70;39.20;;;;;;5055111;28;19966;-65
2022/05/13 14:16:52;;;;;;;;;;;22.10;40.80;;;;;;5073541;28;19916;-64
2022/05/13 14:19:21;;;;;;;;;;;23.50;39.40;;;;;;5070850;28;19947;-65
2022/05/13 14:21:48;;;;;;;;;;;22.40;39.90;;;;;;5072792;28;19916;-66
2022/05/13 14:24:13;;;;;;;;;;;21.80;40.90;;;;;;5069560;28;19916;-65
2022/05/13 14:26:57;;;;;;;;;;;21.40;42.10;;;;;;5067722;28;19994;-65
2022/05/13 14:29:24;;;;;;;;;;;21.00;42.70;;;;;;5073682;28;19920;-64
2022/05/13 14:31:53;;;;;;;;;;;20.90;44.00;;;;;;5071445;28;19955;-65
2022/05/13 14:34:20;;;;;;;;;;;21.40;43.90;;;;;;5072618;28;19917;-64
2022/05/13 14:36:47;;;;;;;;;;;21.60;42.80;;;;;;5071994;28;19927;-64
2022/05/13 14:42:31;;;;;;;;;;;21.20;42.60;;;;;;5026942;28;19924;-64
2022/05/13 14:44:57;;;;;;;;;;;20.50;43.80;;;;;;5051428;28;19986;-64
2022/05/13 14:47:25;;;;;;;;;;;20.20;44.70;;;;;;5072680;28;19920;-65
2022/05/13 14:49:51;;;;;;;;;;;19.90;45.20;;;;;;5072066;28;19969;-63
2022/05/13 14:52:19;;;;;;;;;;;19.70;46.30;;;;;;5067390;28;20001;-64
2022/05/13 14:54:45;;;;;;;;;;;19.50;47.10;;;;;;5070792;28;19920;-66
2022/05/13 14:57:11;;;;;;;;;;;19.40;47.70;;;;;;5068486;28;20528;-63
2022/05/13 14:59:44;;;;;;;;;;;19.30;47.50;;;;;;5069508;28;19920;-63
2022/05/13 15:02:12;;;;;;;;;;;18.80;47.70;;;;;;5068482;28;19927;-65